Time;durP1;ratioP1;P1;durP2;ratioP2;P2;SDS_P1;SDS_P2;PMS_P1;PMS_P2;Temp;Humidity;BMP_temperature;BMP_pressure;BME280_temperature;BME280_humidity;BME280_pressure;Samples;Min_cycle;Max_cycle;Signal;HPM_P1;HPM_P2
2022/04/25 00:02:09;;;;;;;11.60;6.55;;;;;;;9.15;76.07;100756.84;5058126;28;20040;-63
2022/04/25 00:04:35;;;;;;;10.50;6.25;;;;;;;9.18;76.04;100764.63;5058441;28;20029;-63
2022/04/25 00:07:00;;;;;;;12.65;6.80;;;;;;;9.08;76.34;100763.84;5077785;28;20055;-63
2022/04/25 00:09:25;;;;;;;10.77;6.43;;;;;;;9.04;76.56;100763.88;5077860;28;20039;-63
2022/04/25 00:11:50;;;;;;;12.88;6.65;;;;;;;8.96;76.97;100763.97;5077865;28;20032;-63
2022/04/25 00:14:16;;;;;;;11.48;6.65;;;;;;;9.01;76.80;100763.91;5078015;28;20051;-65
2022/04/25 00:16:41;;;;;;;9.73;6.70;;;;;;;8.83;77.38;100762.28;5077779;28;20039;-63
2022/04/25 00:19:08;;;;;;;12.02;6.85;;;;;;;8.79;78.21;100771.06;5078009;28;20037;-63
2022/04/25 00:21:33;;;;;;;11.82;6.50;;;;;;;8.75;77.67;100769.34;5077636;28;20024;-64
2022/04/25 00:23:59;;;;;;;13.43;7.18;;;;;;;8.71;78.65;100768.47;5077844;28;20126;-63
2022/04/25 00:26:24;;;;;;;12.70;7.55;;;;;;;8.57;78.37;100759.88;5077805;28;20067;-63
2022/04/25 00:28:49;;;;;;;11.35;7.25;;;;;;;8.54;78.79;100772.94;5077858;28;20089;-66
2022/04/25 00:31:15;;;;;;;9.40;7.18;;;;;;;8.54;79.23;100772.06;5077655;28;20100;-64
2022/04/25 00:33:40;;;;;;;11.27;7.90;;;;;;;8.46;79.56;100779.09;5077600;28;20447;-63
2022/04/25 00:36:05;;;;;;;12.27;7.15;;;;;;;8.45;79.88;100778.22;5077474;28;20040;-63
2022/04/25 00:38:31;;;;;;;12.40;7.40;;;;;;;8.43;79.89;100768.69;5077263;28;20047;-63
2022/04/25 00:40:56;;;;;;;14.93;7.80;;;;;;;8.31;80.23;100769.59;5077724;28;20033;-63
2022/04/25 00:43:21;;;;;;;12.50;7.43;;;;;;;8.34;80.37;100778.28;5077508;28;20024;-63
2022/04/25 00:45:46;;;;;;;13.60;7.90;;;;;;;8.28;80.79;100772.22;5077339;28;20021;-62
2022/04/25 00:48:12;;;;;;;16.08;7.90;;;;;;;8.14;80.74;100751.41;5077323;28;20359;-62
2022/04/25 00:50:39;;;;;;;11.18;7.57;;;;;;;8.23;80.98;100776.56;5077119;28;20043;-63
2022/04/25 00:53:06;;;;;;;13.57;7.50;;;;;;;8.19;81.05;100774.84;5077299;28;20033;-64
2022/04/25 00:55:31;;;;;;;13.75;7.80;;;;;;;8.17;81.22;100766.16;5076738;28;20462;-64
2022/04/25 00:57:57;;;;;;;13.88;8.45;;;;;;;8.12;81.44;100778.38;5077577;28;20025;-63
2022/04/25 01:00:23;;;;;;;13.05;8.15;;;;;;;8.11;81.81;100761.88;5077255;28;20033;-63
2022/04/25 01:02:48;;;;;;;12.90;7.93;;;;;;;8.08;82.12;100767.09;5077252;28;20085;-64
2022/04/25 01:05:14;;;;;;;13.73;8.07;;;;;;;8.05;82.03;100767.09;5077506;28;20058;-64
2022/04/25 01:07:39;;;;;;;13.43;7.93;;;;;;;8.00;82.22;100767.09;5076911;28;20032;-63
2022/04/25 01:10:06;;;;;;;11.85;8.02;;;;;;;7.90;82.68;100769.78;5077019;28;20133;-63
2022/04/25 01:12:32;;;;;;;13.32;8.45;;;;;;;7.84;83.17;100769.78;5076893;28;20028;-63
2022/04/25 01:15:04;;;;;;;15.68;8.68;;;;;;;7.84;83.05;100775.84;5076647;28;20033;-63
2022/04/25 01:17:29;;;;;;;12.77;8.15;;;;;;;7.79;83.25;100764.59;5076688;28;20032;-62
2022/04/25 01:19:55;;;;;;;14.63;8.80;;;;;;;7.87;83.54;100773.25;5077135;28;20039;-64
2022/04/25 01:22:42;;;;;;;12.40;8.52;;;;;;;7.91;82.48;100776.72;5076825;28;20424;-64
2022/04/25 01:27:54;;;;;;;14.95;8.73;;;;;;;7.79;83.86;100764.59;5076425;28;20443;-63
2022/04/25 01:30:20;;;;;;;15.68;9.13;;;;;;;7.72;83.79;100765.50;5076394;28;20033;-64
2022/04/25 01:32:46;;;;;;;14.70;8.88;;;;;;;7.76;84.05;100762.00;5076529;28;20040;-62
2022/04/25 01:35:12;;;;;;;14.18;9.48;;;;;;;7.74;84.37;100765.47;5075680;28;20049;-63
2022/04/25 01:37:37;;;;;;;15.38;9.23;;;;;;;7.77;84.25;100765.47;5075520;28;20067;-63
2022/04/25 01:40:03;;;;;;;14.50;9.50;;;;;;;7.66;84.22;100768.09;5075798;28;20111;-63
2022/04/25 01:42:29;;;;;;;15.30;9.38;;;;;;;7.60;84.49;100766.41;5075202;28;20028;-63
2022/04/25 01:44:54;;;;;;;16.85;9.27;;;;;;;7.58;84.97;100773.34;5075175;28;20025;-63
2022/04/25 01:47:19;;;;;;;14.23;9.20;;;;;;;7.56;84.88;100774.22;5075138;28;20032;-62
2022/04/25 01:49:45;;;;;;;16.30;9.80;;;;;;;7.57;85.31;100781.16;5075057;28;20047;-63
2022/04/25 01:52:29;;;;;;;17.20;9.52;;;;;;;7.45;85.03;100776.81;5075357;28;20043;-62
2022/04/25 01:54:55;;;;;;;15.35;9.18;;;;;;;7.44;85.44;100772.50;5075157;28;20032;-62
2022/04/25 01:57:20;;;;;;;16.50;9.65;;;;;;;7.36;85.95;100778.59;5074845;28;20436;-64
2022/04/25 01:59:46;;;;;;;15.77;9.80;;;;;;;7.38;86.20;100771.66;5074944;28;20043;-63
2022/04/25 02:02:13;;;;;;;16.20;9.65;;;;;;;7.34;86.36;100779.44;5075028;28;20419;-65
2022/04/25 02:04:39;;;;;;;13.30;9.00;;;;;;;7.40;86.50;100782.94;5075060;28;20428;-63
2022/04/25 02:07:09;;;;;;;17.13;10.50;;;;;;;7.33;86.19;100776.84;5074193;28;20097;-63
2022/04/25 02:09:36;;;;;;;15.45;9.98;;;;;;;7.32;86.75;100773.38;5074779;28;20083;-63
2022/04/25 02:12:03;;;;;;;17.00;10.27;;;;;;;7.28;86.81;100769.03;5074639;28;20033;-62
2022/04/25 02:14:29;;;;;;;16.92;10.45;;;;;;;7.22;86.78;100771.66;5074924;28;20098;-64
2022/04/25 02:16:54;;;;;;;18.73;10.60;;;;;;;7.20;87.08;100768.19;5074495;28;20039;-64
2022/04/25 02:19:20;;;;;;;18.30;10.70;;;;;;;7.15;87.42;100774.25;5075150;28;20024;-63
2022/04/25 02:21:45;;;;;;;18.80;10.88;;;;;;;7.14;87.67;100772.53;5074771;28;20104;-63
2022/04/25 02:24:10;;;;;;;16.38;10.52;;;;;;;7.15;87.64;100774.25;5074504;28;20047;-64
2022/04/25 02:26:36;;;;;;;16.80;10.70;;;;;;;7.08;87.78;100764.75;5074894;28;20047;-64
2022/04/25 02:29:01;;;;;;;19.42;11.18;;;;;;;7.13;87.25;100771.66;5074964;28;20028;-63
2022/04/25 02:31:26;;;;;;;16.27;10.52;;;;;;;7.18;87.81;100775.13;5075026;28;20033;-64
2022/04/25 02:33:52;;;;;;;17.50;10.27;;;;;;;7.15;87.60;100764.72;5070754;28;93994;-63
2022/04/25 02:36:17;;;;;;;15.75;11.00;;;;;;;7.19;87.41;100766.47;5074229;28;20045;-63
2022/04/25 02:38:43;;;;;;;18.20;10.93;;;;;;;7.18;87.84;100774.25;5070695;28;20040;-65
2022/04/25 02:41:09;;;;;;;18.63;10.80;;;;;;;7.17;87.39;100772.53;5065811;28;20040;-63
2022/04/25 02:43:34;;;;;;;17.35;11.43;;;;;;;7.13;87.58;100770.78;5063961;28;20041;-64
2022/04/25 02:46:01;;;;;;;16.80;11.50;;;;;;;7.15;88.14;100766.47;5069530;28;20028;-63
2022/04/25 02:48:26;;;;;;;16.98;11.13;;;;;;;7.11;87.68;100762.97;5075051;28;20036;-63
2022/04/25 02:50:51;;;;;;;18.10;11.23;;;;;;;7.09;87.91;100767.34;5075099;28;20057;-62
2022/04/25 02:53:17;;;;;;;16.58;11.25;;;;;;;7.04;87.71;100761.28;5075023;28;20066;-63
2022/04/25 02:55:42;;;;;;;16.70;11.13;;;;;;;6.99;88.59;100763.88;5074015;28;20052;-63
2022/04/25 02:58:10;;;;;;;17.50;11.32;;;;;;;6.94;88.61;100765.59;5075167;28;20043;-64
2022/04/25 03:00:35;;;;;;;17.42;11.23;;;;;;;6.87;88.63;100758.66;5074874;28;20432;-65
2022/04/25 03:03:01;;;;;;;17.65;11.60;;;;;;;6.94;89.01;100767.31;5075131;28;20112;-63
2022/04/25 03:05:27;;;;;;;25.90;12.75;;;;;;;6.88;88.83;100770.81;5075203;28;20044;-64
2022/04/25 03:07:52;;;;;;;18.27;11.48;;;;;;;6.89;88.98;100766.47;5074997;28;20115;-64
2022/04/25 03:10:17;;;;;;;16.17;11.43;;;;;;;6.98;89.05;100771.66;5075117;28;20036;-63
2022/04/25 03:12:43;;;;;;;22.20;11.32;;;;;;;6.93;88.96;100768.19;5074887;28;20036;-64
2022/04/25 03:15:08;;;;;;;18.73;11.35;;;;;;;6.87;89.11;100763.88;5074945;28;20098;-63
2022/04/25 03:17:33;;;;;;;19.10;12.25;;;;;;;6.77;89.11;100769.03;5074241;28;20025;-65
2022/04/25 03:19:58;;;;;;;20.23;12.10;;;;;;;6.77;89.47;100769.91;5073487;28;20344;-64
2022/04/25 03:22:24;;;;;;;16.70;11.50;;;;;;;6.77;89.89;100763.84;5074679;28;20032;-64
2022/04/25 03:24:49;;;;;;;22.67;12.18;;;;;;;6.77;89.47;100769.91;5074640;28;20021;-64
2022/04/25 03:27:15;;;;;;;20.50;12.30;;;;;;;6.77;89.33;100763.84;5074529;28;20032;-64
2022/04/25 03:29:40;;;;;;;23.08;12.68;;;;;;;6.73;89.65;100765.59;5074608;28;20033;-63
2022/04/25 03:32:06;;;;;;;20.08;12.75;;;;;;;6.75;89.72;100768.22;5074732;28;20020;-64
2022/04/25 03:34:32;;;;;;;20.33;12.35;;;;;;;6.75;89.90;100768.22;5074512;28;20059;-63
2022/04/25 03:36:58;;;;;;;19.00;11.90;;;;;;;6.79;89.65;100769.91;5074738;28;20028;-63
2022/04/25 03:39:23;;;;;;;20.23;12.43;;;;;;;6.81;89.50;100768.19;5074568;28;20158;-65
2022/04/25 03:41:48;;;;;;;22.55;13.10;;;;;;;6.82;89.34;100775.13;5074557;28;20367;-63
2022/04/25 03:44:13;;;;;;;18.35;12.45;;;;;;;6.75;89.52;100771.69;5074684;28;20111;-64
2022/04/25 03:46:39;;;;;;;20.88;12.90;;;;;;;6.75;89.64;100783.81;5074746;28;20028;-63
2022/04/25 03:49:04;;;;;;;20.02;12.25;;;;;;;6.70;89.92;100785.53;5074561;28;20028;-62
2022/04/25 03:51:30;;;;;;;19.02;12.82;;;;;;;6.68;90.02;100779.44;5074407;28;20028;-63
2022/04/25 03:53:55;;;;;;;20.52;12.70;;;;;;;6.68;90.29;100788.13;5074404;28;20029;-64
2022/04/25 03:59:04;;;;;;;19.50;12.32;;;;;;;6.66;90.01;100783.78;5074005;28;20106;-64
2022/04/25 04:01:31;;;;;;;17.83;12.82;;;;;;;6.69;90.20;100783.78;5074497;28;20435;-64
2022/04/25 04:04:02;;;;;;;20.73;12.68;;;;;;;6.60;90.07;100789.81;5074207;28;20035;-65
2022/04/25 04:06:27;;;;;;;21.65;13.27;;;;;;;6.57;90.11;100790.72;5074234;28;20448;-64
2022/04/25 04:08:53;;;;;;;19.20;13.60;;;;;;;6.54;90.63;100790.72;5074187;28;20050;-63
2022/04/25 04:11:18;;;;;;;20.40;13.25;;;;;;;6.49;90.96;100796.75;5074109;28;20067;-63
2022/04/25 04:13:45;;;;;;;25.15;13.70;;;;;;;6.47;91.57;100788.94;5074563;28;20029;-63
2022/04/25 04:16:10;;;;;;;21.48;13.23;;;;;;;6.46;91.78;100801.94;5074279;28;20037;-64
2022/04/25 04:18:35;;;;;;;23.38;13.77;;;;;;;6.42;91.57;100798.44;5055010;28;20025;-64
2022/04/25 04:21:01;;;;;;;21.65;14.35;;;;;;;6.43;92.41;100797.59;5054093;28;20041;-64
2022/04/25 04:23:26;;;;;;;27.70;14.68;;;;;;;6.43;92.23;100797.59;5054018;28;20031;-63
2022/04/25 04:25:51;;;;;;;23.00;14.25;;;;;;;6.39;92.57;100802.81;5053768;28;20041;-64
2022/04/25 04:28:17;;;;;;;23.15;14.48;;;;;;;6.34;92.70;100807.97;5054099;28;20506;-62
2022/04/25 04:30:44;;;;;;;20.98;14.60;;;;;;;6.36;93.25;100803.66;5057033;28;20067;-65
2022/04/25 04:33:10;;;;;;;24.30;15.20;;;;;;;6.41;92.93;100804.50;5057594;28;20055;-64
2022/04/25 04:38:18;;;;;;;23.02;15.05;;;;;;;6.43;92.87;100802.78;5057731;28;20410;-63
2022/04/25 04:40:45;;;;;;;21.95;15.23;;;;;;;6.39;93.08;100821.00;5062596;28;20036;-65
2022/04/25 04:43:10;;;;;;;26.60;15.98;;;;;;;6.33;92.89;100811.44;5077554;28;20089;-63
2022/04/25 04:45:37;;;;;;;25.23;16.25;;;;;;;6.39;93.19;100828.78;5077367;28;20115;-63
2022/04/25 04:48:02;;;;;;;25.92;15.10;;;;;;;6.38;93.25;100820.13;5077357;28;20037;-62
2022/04/25 04:50:28;;;;;;;25.65;15.85;;;;;;;6.35;93.59;100827.03;5076886;28;20064;-64
2022/04/25 04:52:58;;;;;;;22.48;15.05;;;;;;;6.32;93.70;100817.50;5077165;28;20436;-64
2022/04/25 04:55:24;;;;;;;26.98;15.52;;;;;;;6.34;93.67;100833.09;5077110;28;20029;-63
2022/04/25 04:57:50;;;;;;;24.05;15.13;;;;;;;6.35;93.57;100824.44;5077297;28;20161;-64
2022/04/25 05:00:16;;;;;;;21.70;15.45;;;;;;;6.28;93.93;100829.59;5077249;28;20455;-63
2022/04/25 05:02:43;;;;;;;24.42;15.52;;;;;;;6.34;93.74;100833.97;5076497;28;20028;-63
2022/04/25 05:05:09;;;;;;;22.17;14.43;;;;;;;6.32;93.87;100833.09;5060486;28;20033;-63
2022/04/25 05:07:35;;;;;;;23.77;15.07;;;;;;;6.31;94.16;100839.16;5056953;28;20044;-64
2022/04/25 05:10:03;;;;;;;26.27;15.55;;;;;;;6.33;94.09;100842.63;5057005;28;20029;-63
2022/04/25 05:12:28;;;;;;;29.67;15.82;;;;;;;6.44;93.56;100858.25;5056981;28;20051;-63
2022/04/25 05:14:54;;;;;;;24.45;16.00;;;;;;;6.54;93.42;100857.44;5068163;28;20511;-62
2022/04/25 05:17:19;;;;;;;22.60;15.63;;;;;;;6.64;93.14;100841.84;5076789;28;20032;-64
2022/04/25 05:19:45;;;;;;;22.60;15.07;;;;;;;6.68;92.98;100849.66;5076696;28;20032;-63
2022/04/25 05:22:10;;;;;;;23.90;15.55;;;;;;;6.72;92.49;100839.28;5076600;28;20101;-63
2022/04/25 05:24:35;;;;;;;27.75;15.65;;;;;;;6.74;92.64;100855.75;5076514;28;20025;-64
2022/04/25 05:27:00;;;;;;;29.30;16.15;;;;;;;6.72;93.55;100846.22;5076488;28;20407;-64
2022/04/25 05:29:26;;;;;;;25.42;15.88;;;;;;;6.85;92.97;100855.78;5076580;28;20021;-63
2022/04/25 05:31:51;;;;;;;24.38;15.30;;;;;;;6.93;92.47;100854.03;5076257;28;20032;-64
2022/04/25 05:34:16;;;;;;;24.08;15.63;;;;;;;7.02;92.13;100851.47;5067523;28;20060;-64
2022/04/25 05:36:42;;;;;;;23.40;16.05;;;;;;;7.03;92.21;100866.19;5056240;28;20068;-63
2022/04/25 05:39:08;;;;;;;23.90;15.45;;;;;;;6.97;92.59;100869.66;5056119;28;20124;-62
2022/04/25 05:41:36;;;;;;;25.15;15.60;;;;;;;7.09;92.73;100858.41;5055199;28;20440;-64
2022/04/25 05:44:03;;;;;;;23.83;16.15;;;;;;;7.26;92.33;100871.44;5056118;28;20119;-65
2022/04/25 05:46:28;;;;;;;23.65;16.33;;;;;;;7.29;91.97;100869.69;5055802;28;20032;-65
2022/04/25 05:54:21;;;;;;;25.75;16.30;;;;;;;7.36;91.97;100874.91;5055865;28;20073;-64
2022/04/25 05:56:46;;;;;;;24.13;16.73;;;;;;;7.40;91.49;100877.50;5065363;28;20036;-63
2022/04/25 05:59:13;;;;;;;25.88;16.35;;;;;;;7.33;91.75;100887.03;5075782;28;20435;-64
2022/04/25 06:01:38;;;;;;;26.65;16.08;;;;;;;7.34;92.29;100891.38;5075614;28;20094;-64
2022/04/25 06:04:04;;;;;;;24.17;16.55;;;;;;;7.40;92.01;100885.31;5076133;28;20032;-64
2022/04/25 06:06:29;;;;;;;24.73;15.60;;;;;;;7.36;91.49;100870.56;5075845;28;20029;-64
2022/04/25 06:08:54;;;;;;;24.65;16.23;;;;;;;7.54;91.64;100882.72;5075617;28;20043;-63
2022/04/25 06:11:21;;;;;;;26.98;16.38;;;;;;;7.65;90.92;100892.25;5075622;28;20424;-64
2022/04/25 06:13:47;;;;;;;27.85;16.13;;;;;;;7.40;91.78;100877.50;5075468;28;20469;-64
2022/04/25 06:16:12;;;;;;;30.50;17.73;;;;;;;7.53;92.22;100888.78;5075494;28;20494;-63
2022/04/25 06:18:37;;;;;;;26.77;17.52;;;;;;;7.61;92.19;100897.47;5072776;28;20040;-65
2022/04/25 06:21:03;;;;;;;24.83;17.40;;;;;;;7.63;92.04;100898.31;5075465;28;20335;-65
2022/04/25 06:23:28;;;;;;;28.05;17.58;;;;;;;7.72;91.78;100905.28;5075614;28;20047;-64
2022/04/25 06:25:53;;;;;;;25.95;17.05;;;;;;;7.78;91.52;100900.94;5075258;28;20356;-63
2022/04/25 06:28:19;;;;;;;24.27;17.63;;;;;;;7.85;91.40;100904.38;5074449;28;20472;-64
2022/04/25 06:30:44;;;;;;;24.13;17.15;;;;;;;7.88;91.35;100907.84;5074776;28;20029;-64
2022/04/25 06:33:09;;;;;;;27.60;18.08;;;;;;;7.98;91.49;100906.09;5074628;28;20037;-63
2022/04/25 06:35:35;;;;;;;27.70;18.42;;;;;;;8.12;91.33;100904.34;5075135;28;20056;-63
2022/04/25 06:38:00;;;;;;;28.77;17.70;;;;;;;8.23;90.89;100901.69;5075617;28;20040;-63
2022/04/25 06:40:26;;;;;;;25.10;17.90;;;;;;;8.26;90.57;100884.31;5075063;28;20047;-63
2022/04/25 06:42:52;;;;;;;25.23;17.42;;;;;;;8.48;90.13;100903.41;5074908;28;20463;-63
2022/04/25 06:45:18;;;;;;;28.75;17.80;;;;;;;8.54;89.23;100905.97;5075044;28;20419;-64
2022/04/25 06:47:43;;;;;;;26.20;18.00;;;;;;;8.60;88.80;100912.91;5075090;28;20040;-63
2022/04/25 06:50:09;;;;;;;26.73;17.10;;;;;;;8.58;88.95;100909.44;5074973;28;20043;-63
2022/04/25 06:52:34;;;;;;;26.50;17.55;;;;;;;8.55;88.50;100909.44;5075031;28;20036;-63
2022/04/25 06:55:00;;;;;;;26.25;18.15;;;;;;;8.53;89.06;100904.22;5075162;28;20040;-64
2022/04/25 06:57:25;;;;;;;26.15;18.13;;;;;;;8.61;89.15;100906.81;5075437;28;20169;-63
2022/04/25 06:59:51;;;;;;;30.25;17.83;;;;;;;8.71;88.97;100909.34;5075330;28;20040;-63
2022/04/25 07:02:16;;;;;;;27.67;18.45;;;;;;;8.65;88.51;100872.03;5074731;28;20040;-63
2022/04/25 07:04:42;;;;;;;27.83;18.00;;;;;;;8.95;87.73;100913.59;5074881;28;20028;-63
2022/04/25 07:07:08;;;;;;;25.75;18.65;;;;;;;9.02;87.72;100917.00;5075218;28;20032;-63
2022/04/25 07:09:33;;;;;;;29.77;19.02;;;;;;;8.94;88.02;100916.22;5075402;28;20301;-63
2022/04/25 07:11:59;;;;;;;28.17;18.38;;;;;;;8.93;87.71;100917.09;5074589;28;20032;-63
2022/04/25 07:14:25;;;;;;;29.33;19.02;;;;;;;8.95;88.45;100923.16;5074769;28;20378;-63
2022/04/25 07:16:54;;;;;;;25.85;18.23;;;;;;;8.92;88.26;100921.44;5073285;28;20035;-62
2022/04/25 07:19:19;;;;;;;28.77;20.13;;;;;;;8.81;88.54;100923.25;5081147;28;20328;-63
2022/04/25 07:29:59;;;;;;;28.98;20.67;;;;;;;8.88;88.66;100934.50;5062885;28;20068;-63
2022/04/25 07:32:25;;;;;;;31.15;20.08;;;;;;;8.80;88.94;100936.28;5073955;28;20498;-63
2022/04/25 07:34:50;;;;;;;29.33;20.17;;;;;;;8.74;89.05;100921.53;5061184;28;20134;-64
2022/04/25 07:37:16;;;;;;;30.13;20.65;;;;;;;8.71;89.99;100940.66;5054671;28;20041;-63
2022/04/25 07:39:42;;;;;;;29.70;20.70;;;;;;;8.75;89.55;100938.06;5054660;28;20090;-63
2022/04/25 07:42:08;;;;;;;31.70;20.55;;;;;;;8.72;89.51;100941.53;5054076;28;20042;-62
2022/04/25 07:44:33;;;;;;;31.75;20.67;;;;;;;8.65;89.73;100932.88;5054812;28;20043;-63
2022/04/25 07:46:59;;;;;;;33.38;21.95;;;;;;;8.61;90.12;100941.59;5054850;28;20043;-63
2022/04/25 07:49:25;;;;;;;32.55;21.67;;;;;;;8.64;90.13;100941.59;5054184;28;20140;-59
2022/04/25 07:51:51;;;;;;;29.35;21.50;;;;;;;8.70;89.98;100940.66;5054257;28;20028;-61
2022/04/25 07:54:16;;;;;;;30.60;21.38;;;;;;;8.73;89.70;100941.53;5054237;28;20344;-60
2022/04/25 07:56:44;;;;;;;30.65;20.98;;;;;;;8.78;89.89;100948.47;5054219;28;20029;-61
2022/04/25 07:59:10;;;;;;;30.38;21.60;;;;;;;8.79;89.92;100951.09;5053939;28;20033;-60
2022/04/25 08:01:36;;;;;;;33.35;21.35;;;;;;;8.72;89.95;100951.97;5054285;28;20348;-61
2022/04/25 08:04:01;;;;;;;39.65;22.33;;;;;;;8.68;90.34;100953.72;5054475;28;20037;-59
2022/04/25 08:06:27;;;;;;;32.33;22.13;;;;;;;8.76;90.01;100958.91;5058126;28;20450;-60
2022/04/25 08:08:54;;;;;;;33.90;21.85;;;;;;;8.82;89.95;100963.25;5057563;28;20048;-60
2022/04/25 08:11:21;;;;;;;33.35;22.58;;;;;;;8.78;90.51;100959.78;5057970;28;20063;-61
2022/04/25 08:19:15;;;;;;;37.40;25.35;;;;;;;8.38;95.11;100972.94;5058046;28;20052;-59
2022/04/25 08:21:41;;;;;;;37.03;25.17;;;;;;;8.31;96.10;100975.56;5057698;28;20033;-62
2022/04/25 08:24:06;;;;;;;36.63;25.83;;;;;;;8.13;98.05;100979.06;5057618;28;20037;-62
2022/04/25 08:26:31;;;;;;;42.20;28.85;;;;;;;7.95;100.00;100979.94;5057591;28;20086;-61
2022/04/25 08:28:59;;;;;;;45.05;31.35;;;;;;;7.86;100.00;100974.72;5057158;28;20037;-62
2022/04/25 08:31:24;;;;;;;45.85;29.35;;;;;;;7.87;100.00;100984.28;5057397;28;20029;-61
2022/04/25 08:33:50;;;;;;;48.33;31.25;;;;;;;7.80;100.00;100984.25;5056641;28;20139;-61
2022/04/25 08:36:16;;;;;;;48.80;31.17;;;;;;;7.80;100.00;100984.25;5057429;28;20351;-61
2022/04/25 08:38:43;;;;;;;54.83;33.95;;;;;;;7.86;100.00;101000.78;5057162;28;20029;-61
2022/04/25 08:41:10;;;;;;;60.40;34.22;;;;;;;7.90;100.00;101001.66;5057216;28;20032;-59
2022/04/25 08:43:38;;;;;;;57.05;35.55;;;;;;;7.89;100.00;100992.97;5056979;28;20024;-60
2022/04/25 08:46:07;;;;;;;53.67;33.67;;;;;;;7.98;100.00;100999.91;5056920;28;20111;-61
2022/04/25 08:48:33;;;;;;;57.45;34.90;;;;;;;7.95;100.00;100999.94;5056926;28;20040;-61
2022/04/25 08:51:00;;;;;;;55.45;34.70;;;;;;;7.93;100.00;101002.53;5057194;28;20029;-59
2022/04/25 08:53:27;;;;;;;54.33;33.08;;;;;;;7.88;100.00;101014.69;5057179;28;20108;-60
2022/04/25 08:55:54;;;;;;;57.90;34.40;;;;;;;7.90;100.00;101012.94;5057194;28;20344;-61
2022/04/25 08:58:21;;;;;;;59.78;35.42;;;;;;;7.83;100.00;101016.41;5057068;28;20421;-60
2022/04/25 09:00:46;;;;;;;56.50;35.08;;;;;;;7.84;100.00;101014.66;5056772;28;20116;-61
2022/04/25 09:03:14;;;;;;;57.45;35.80;;;;;;;7.81;100.00;101020.75;5056963;28;20060;-61
2022/04/25 09:05:40;;;;;;;57.47;35.30;;;;;;;7.82;100.00;101025.09;5056666;28;20096;-60
2022/04/25 09:08:07;;;;;;;59.42;35.45;;;;;;;7.80;100.00;101025.94;5056761;28;20103;-61
2022/04/25 09:10:33;;;;;;;63.22;37.47;;;;;;;7.88;100.00;101024.22;5056693;28;20057;-61
2022/04/25 09:12:59;;;;;;;59.83;37.20;;;;;;;7.88;100.00;101025.09;5056929;28;20397;-61
2022/04/25 09:15:25;;;;;;;59.83;36.08;;;;;;;7.83;100.00;101033.78;5056322;28;20055;-61
2022/04/25 09:17:54;;;;;;;62.97;38.42;;;;;;;7.83;100.00;101039.84;5056502;28;20033;-60
2022/04/25 09:20:21;;;;;;;63.13;37.95;;;;;;;7.87;100.00;101041.59;5056526;28;20116;-61
2022/04/25 09:22:47;;;;;;;69.22;38.63;;;;;;;7.88;100.00;101039.88;5056602;28;20029;-61
2022/04/25 09:25:15;;;;;;;63.85;38.90;;;;;;;8.00;100.00;101043.34;5056532;28;20098;-62
2022/04/25 09:27:42;;;;;;;62.03;39.65;;;;;;;8.03;100.00;101043.34;5056832;28;20102;-62
2022/04/25 09:30:16;;;;;;;65.70;37.13;;;;;;;8.01;100.00;101041.59;5056196;28;20025;-61
2022/04/25 09:32:43;;;;;;;64.35;38.33;;;;;;;8.00;100.00;101045.94;5056377;28;20525;-61
2022/04/25 09:35:37;;;;;;;64.40;38.10;;;;;;;7.98;100.00;101041.59;5056331;28;20041;-61
2022/04/25 09:38:08;;;;;;;66.30;39.50;;;;;;;8.17;100.00;101042.47;5055327;28;20034;-60
2022/04/25 09:40:36;;;;;;;63.78;38.33;;;;;;;8.11;100.00;101045.09;5056097;28;20048;-61
2022/04/25 09:43:05;;;;;;;65.22;38.60;;;;;;;8.19;100.00;101045.94;5056136;28;20047;-60
2022/04/25 09:45:32;;;;;;;64.22;39.45;;;;;;;8.22;100.00;101040.72;5056174;28;20094;-59
2022/04/25 09:47:58;;;;;;;66.00;41.25;;;;;;;8.34;100.00;101039.00;5056121;28;20071;-62
2022/04/25 09:50:27;;;;;;;63.25;39.65;;;;;;;8.34;100.00;101036.41;5055572;28;20072;-61
2022/04/25 09:52:58;;;;;;;59.40;38.05;;;;;;;8.31;100.00;101049.41;5056483;28;20091;-61
2022/04/25 09:55:25;;;;;;;63.40;39.15;;;;;;;8.20;100.00;101047.69;5055792;28;20032;-60
2022/04/25 09:57:51;;;;;;;63.35;38.00;;;;;;;8.08;100.00;101045.97;5055969;28;20498;-62
2022/04/25 10:00:33;;;;;;;66.53;39.63;;;;;;;7.89;100.00;101032.03;5055765;28;20120;-60
2022/04/25 10:03:02;;;;;;;63.45;39.20;;;;;;;8.12;100.00;101052.03;5056075;28;20029;-61
2022/04/25 10:05:43;;;;;;;67.13;40.28;;;;;;;8.32;100.00;101065.94;5056336;28;20094;-61
2022/04/25 10:08:11;;;;;;;57.22;35.35;;;;;;;8.27;100.00;101065.06;5056230;28;20067;-61
2022/04/25 10:10:45;;;;;;;53.33;35.05;;;;;;;8.18;100.00;101068.53;5055910;28;20033;-61
2022/04/25 10:13:10;;;;;;;55.65;35.35;;;;;;;8.15;100.00;101070.25;5055786;28;20041;-60
2022/04/25 10:15:38;;;;;;;54.38;35.22;;;;;;;8.24;100.00;101071.16;5054969;28;20123;-60
2022/04/25 10:18:05;;;;;;;52.47;34.20;;;;;;;8.29;100.00;101085.06;5055977;28;20064;-63
2022/04/25 10:20:32;;;;;;;53.50;34.13;;;;;;;8.29;100.00;101076.38;5055729;28;20033;-62
2022/04/25 10:22:57;;;;;;;49.22;33.80;;;;;;;8.30;100.00;101080.72;5056001;28;20036;-62
2022/04/25 10:25:22;;;;;;;53.65;34.60;;;;;;;8.26;100.00;101084.19;5055714;28;20037;-61
2022/04/25 10:27:49;;;;;;;50.75;33.25;;;;;;;8.29;100.00;101084.19;5055221;28;20044;-60
2022/04/25 10:30:18;;;;;;;54.33;35.35;;;;;;;8.40;100.00;101082.47;5055363;28;20039;-60
2022/04/25 10:32:43;;;;;;;52.42;34.33;;;;;;;8.50;100.00;101073.75;5054571;28;20119;-62
2022/04/25 10:35:14;;;;;;;50.45;33.28;;;;;;;8.52;100.00;101092.88;5055380;28;20056;-62
2022/04/25 10:37:41;;;;;;;53.03;33.22;;;;;;;8.49;100.00;101079.84;5055172;28;20075;-60
2022/04/25 10:40:16;;;;;;;50.55;33.40;;;;;;;8.55;100.00;101084.19;5055592;28;20040;-60
2022/04/25 10:45:59;;;;;;;47.33;31.63;;;;;;;8.54;100.00;101100.72;5046857;28;20032;-60
2022/04/25 10:48:26;;;;;;;47.35;31.35;;;;;;;8.56;100.00;101093.75;5055498;28;20029;-61
2022/04/25 10:51:13;;;;;;;48.85;32.78;;;;;;;8.54;100.00;101103.31;5055060;28;20439;-61
2022/04/25 10:54:03;;;;;;;50.03;32.60;;;;;;;8.43;100.00;101111.16;5055323;28;20029;-62
2022/04/25 10:56:30;;;;;;;47.60;31.95;;;;;;;8.44;100.00;101106.81;5055143;28;20116;-60
2022/04/25 10:59:24;;;;;;;45.90;32.50;;;;;;;8.38;100.00;101110.28;5054797;28;20041;-62
2022/04/25 11:01:53;;;;;;;46.78;31.38;;;;;;;8.34;100.00;101108.53;5055050;28;20028;-61
2022/04/25 11:04:20;;;;;;;53.08;33.20;;;;;;;8.27;100.00;101112.88;5055176;28;20440;-59
2022/04/25 11:06:47;;;;;;;56.13;36.13;;;;;;;8.31;100.00;101106.75;5055047;28;20074;-60
2022/04/25 11:09:39;;;;;;;53.95;34.90;;;;;;;8.27;100.00;101118.09;5054969;28;20037;-60
2022/04/25 11:12:05;;;;;;;61.22;37.65;;;;;;;8.21;100.00;101111.97;5054916;28;20025;-62
2022/04/25 11:14:30;;;;;;;63.50;38.28;;;;;;;8.40;100.00;101112.91;5054935;28;20036;-62
2022/04/25 11:17:14;;;;;;;62.80;40.00;;;;;;;8.50;100.00;101120.69;5070188;28;20020;-62
2022/04/25 11:19:53;;;;;;;58.15;36.55;;;;;;;8.34;100.00;101105.94;5094304;28;20040;-60
2022/04/25 11:22:31;;;;;;;58.00;35.38;;;;;;;8.46;100.00;101124.19;5082829;28;20036;-62
2022/04/25 11:25:17;;;;;;;55.83;37.08;;;;;;;8.49;100.00;101124.16;5074015;28;20039;-59
2022/04/25 11:28:04;;;;;;;48.40;31.08;;;;;;;8.51;100.00;101132.88;5077993;28;20565;-62
2022/04/25 11:30:30;;;;;;;46.25;28.08;;;;;;;8.36;100.00;101136.34;5080832;28;20028;-61
2022/04/25 11:33:06;;;;;;;45.20;29.67;;;;;;;8.43;100.00;101136.38;5090411;28;20024;-60
2022/04/25 11:35:31;;;;;;;47.00;31.05;;;;;;;8.43;100.00;101137.25;5094471;28;20063;-60
2022/04/25 11:37:57;;;;;;;58.97;33.20;;;;;;;8.52;100.00;101136.34;5088532;28;20021;-61
2022/04/25 13:23:07;;;;;;;46.45;30.20;;;;;;;9.42;100.00;101158.78;5138445;27;90365;-56
2022/04/25 13:25:33;;;;;;;42.20;28.23;;;;;;;9.33;100.00;101158.84;5112027;28;20119;-60
2022/04/25 13:27:58;;;;;;;47.67;30.90;;;;;;;9.36;100.00;101157.94;5112889;28;20458;-60
2022/04/25 13:30:24;;;;;;;44.63;29.50;;;;;;;9.42;100.00;101164.03;5112842;28;20028;-61